Time;durP1;ratioP1;P1;durP2;ratioP2;P2;SDS_P1;SDS_P2;PMS_P1;PMS_P2;Temp;Humidity;BMP_temperature;BMP_pressure;BME280_temperature;BME280_humidity;BME280_pressure;Samples;Min_cycle;Max_cycle;Signal;HPM_P1;HPM_P2
2021/12/03 00:03:53;;;;;;;6.10;3.70;;;;;;;8.00;62.47;98291.91;7738298;32;37878;-81
2021/12/03 00:08:09;;;;;;;7.05;4.62;;;;;;;7.93;62.35;98303.13;7737759;32;39848;-81
2021/12/03 00:12:25;;;;;;;11.20;5.40;;;;;;;7.81;62.41;98294.59;7737908;32;39897;-81
2021/12/03 00:16:42;;;;;;;5.57;3.80;;;;;;;7.96;62.92;98286.25;7737779;32;38633;-82
2021/12/03 00:21:01;;;;;;;4.22;2.90;;;;;;;7.51;63.92;98280.31;7738260;32;35409;-82
2021/12/03 00:25:17;;;;;;;4.60;3.15;;;;;;;7.51;62.65;98272.97;7737857;32;39356;-81
2021/12/03 00:29:34;;;;;;;4.82;3.20;;;;;;;7.37;62.73;98263.91;7737604;32;40059;-82
2021/12/03 00:33:50;;;;;;;6.12;3.10;;;;;;;7.59;61.62;98281.56;7737759;32;37833;-82
2021/12/03 00:38:06;;;;;;;2.95;2.37;;;;;;;7.52;62.26;98288.16;7737526;32;37036;-82
2021/12/03 00:42:24;;;;;;;3.90;2.72;;;;;;;7.60;62.48;98289.41;7737522;32;40043;-82
2021/12/03 00:46:40;;;;;;;3.17;2.45;;;;;;;7.46;62.31;98316.41;7737231;32;41575;-82
2021/12/03 00:50:56;;;;;;;4.78;2.40;;;;;;;7.51;62.24;98320.97;7737212;32;38675;-81
2021/12/03 00:55:12;;;;;;;3.53;2.60;;;;;;;7.57;62.06;98321.72;7737095;32;37268;-82
2021/12/03 00:59:29;;;;;;;4.07;2.40;;;;;;;7.42;62.63;98331.66;7737087;32;40137;-82
2021/12/03 01:03:45;;;;;;;4.70;3.05;;;;;;;7.59;62.41;98344.75;7737009;32;40134;-82
2021/12/03 01:08:01;;;;;;;3.75;2.95;;;;;;;7.45;62.33;98330.25;7736608;32;37555;-82
2021/12/03 01:12:17;;;;;;;5.35;3.10;;;;;;;7.69;62.02;98330.25;7736650;32;37027;-82
2021/12/03 01:16:34;;;;;;;5.62;3.53;;;;;;;7.52;62.97;98334.25;7736644;32;39416;-82
2021/12/03 01:20:51;;;;;;;5.70;3.78;;;;;;;7.44;63.25;98353.84;7735274;32;39980;-81
2021/12/03 01:25:08;;;;;;;6.85;3.42;;;;;;;7.38;63.62;98348.75;7735148;32;38613;-81
2021/12/03 01:29:25;;;;;;;6.18;3.50;;;;;;;7.48;63.28;98349.47;7735066;32;37901;-82
2021/12/03 01:33:42;;;;;;;5.80;3.42;;;;;;;7.42;63.65;98364.19;7734874;32;40790;-82
2021/12/03 01:37:59;;;;;;;7.82;3.92;;;;;;;7.15;64.28;98370.91;7736137;32;39979;-82
2021/12/03 01:42:15;;;;;;;4.93;3.40;;;;;;;7.08;64.56;98361.50;7735891;32;37856;-82
2021/12/03 01:46:32;;;;;;;7.10;4.30;;;;;;;7.04;64.66;98368.59;7735929;32;37750;-81
2021/12/03 01:50:48;;;;;;;6.12;4.07;;;;;;;6.89;65.61;98378.44;7735721;32;40113;-82
2021/12/03 01:55:08;;;;;;;7.18;4.40;;;;;;;6.93;65.70;98390.34;7735603;32;40843;-82
2021/12/03 01:59:24;;;;;;;6.82;4.87;;;;;;;6.93;65.83;98400.34;7737022;32;38557;-83
2021/12/03 02:03:42;;;;;;;7.22;4.55;;;;;;;6.71;66.73;98396.16;7739525;32;37028;-82
2021/12/03 02:07:58;;;;;;;7.70;5.20;;;;;;;6.84;66.43;98396.62;7739430;32;38315;-81
2021/12/03 02:12:15;;;;;;;8.07;4.85;;;;;;;6.87;66.04;98402.28;7739318;32;40062;-82
2021/12/03 02:16:31;;;;;;;7.40;4.62;;;;;;;6.85;66.20;98419.94;7739220;32;38456;-81
2021/12/03 02:20:48;;;;;;;10.57;5.70;;;;;;;6.83;66.00;98427.50;7739381;32;37038;-82
2021/12/03 02:25:07;;;;;;;8.60;5.20;;;;;;;7.02;65.28;98436.63;7739329;32;39203;-82
2021/12/03 02:29:23;;;;;;;8.45;5.37;;;;;;;6.98;65.49;98430.13;7739236;32;40548;-82
2021/12/03 02:33:39;;;;;;;11.27;6.03;;;;;;;7.15;64.98;98441.38;7739192;32;38370;-82
2021/12/03 02:37:55;;;;;;;9.95;6.22;;;;;;;7.08;65.01;98445.50;7739095;32;37174;-79
2021/12/03 02:42:12;;;;;;;12.50;6.75;;;;;;;6.95;65.31;98452.34;7739089;32;39349;-81
2021/12/03 02:46:28;;;;;;;11.10;6.20;;;;;;;7.13;64.62;98451.69;7738963;32;39946;-81
2021/12/03 02:50:44;;;;;;;9.48;6.32;;;;;;;6.95;65.10;98455.06;7738834;32;37805;-81
2021/12/03 02:55:01;;;;;;;11.60;6.68;;;;;;;6.98;65.04;98467.25;7738915;32;37041;-81
2021/12/03 02:59:17;;;;;;;15.38;6.97;;;;;;;6.94;65.01;98472.44;7738896;32;39783;-82
2021/12/03 03:03:33;;;;;;;15.60;7.72;;;;;;;6.86;65.47;98481.94;7737508;32;39558;-81
2021/12/03 03:07:50;;;;;;;13.45;7.90;;;;;;;6.87;65.62;98482.75;7738512;32;37882;-82
2021/12/03 03:12:06;;;;;;;13.80;7.53;;;;;;;7.10;64.75;98487.47;7737306;32;37232;-83
2021/12/03 03:16:22;;;;;;;13.60;8.10;;;;;;;7.00;65.00;98492.16;7739031;32;38844;-81
2021/12/03 03:20:41;;;;;;;12.43;8.00;;;;;;;7.18;64.33;98498.84;7737358;32;40863;-81
2021/12/03 03:24:59;;;;;;;14.95;9.02;;;;;;;6.74;65.82;98506.66;7738536;32;36817;-81
2021/12/03 03:29:16;;;;;;;13.80;8.70;;;;;;;6.89;65.43;98507.69;7738591;32;37030;-81
2021/12/03 03:33:33;;;;;;;16.17;10.75;;;;;;;6.93;65.72;98514.13;7738435;32;39369;-82
2021/12/03 03:37:49;;;;;;;18.20;11.00;;;;;;;6.77;66.41;98530.47;7738378;32;40505;-81
2021/12/03 03:42:06;;;;;;;20.55;11.98;;;;;;;6.78;66.17;98550.25;7738228;32;37981;-81
2021/12/03 03:46:23;;;;;;;20.37;12.45;;;;;;;6.86;66.15;98551.56;7738232;32;37526;-81
2021/12/03 03:50:39;;;;;;;20.00;13.13;;;;;;;6.65;66.93;98551.66;7738195;32;39010;-81
2021/12/03 03:54:55;;;;;;;20.15;12.68;;;;;;;6.61;67.25;98555.19;7738166;32;40519;-81
2021/12/03 03:59:11;;;;;;;19.42;12.02;;;;;;;6.86;66.05;98567.81;7738010;32;37626;-81
2021/12/03 04:03:30;;;;;;;20.90;12.43;;;;;;;6.81;66.09;98573.25;7738043;32;38111;-81
2021/12/03 04:07:46;;;;;;;19.15;11.73;;;;;;;6.37;67.70;98572.03;7738138;32;38449;-81
2021/12/03 04:12:02;;;;;;;17.90;10.68;;;;;;;6.60;66.47;98575.22;7737833;32;39958;-82
2021/12/03 04:16:19;;;;;;;18.08;12.13;;;;;;;6.57;66.47;98576.56;7737822;32;38589;-81
2021/12/03 04:20:35;;;;;;;19.42;11.20;;;;;;;6.37;66.57;98589.09;7737770;32;36874;-81
2021/12/03 04:24:55;;;;;;;17.33;10.98;;;;;;;6.53;66.53;98597.19;7737357;32;40077;-81
2021/12/03 04:29:16;;;;;;;18.25;10.68;;;;;;;6.42;66.86;98604.53;7737525;32;40799;-81
2021/12/03 04:33:33;;;;;;;19.10;10.77;;;;;;;6.35;66.72;98623.75;7737476;32;37889;-81
2021/12/03 04:37:49;;;;;;;19.20;10.77;;;;;;;6.50;66.28;98638.34;7737634;32;37382;-81
2021/12/03 04:42:06;;;;;;;15.88;10.35;;;;;;;6.35;66.14;98639.19;7737377;32;40163;-81
2021/12/03 04:46:22;;;;;;;17.20;10.85;;;;;;;6.46;65.87;98642.69;7736051;32;39907;-82
2021/12/03 04:50:42;;;;;;;20.73;11.60;;;;;;;6.67;64.95;98652.37;7737035;32;37863;-81
2021/12/03 04:54:58;;;;;;;21.40;12.48;;;;;;;6.39;65.28;98684.38;7735975;32;37854;-81
2021/12/03 04:59:14;;;;;;;19.25;11.93;;;;;;;6.53;64.63;98689.25;7736987;32;39303;-81
2021/12/03 05:03:30;;;;;;;20.52;13.00;;;;;;;6.35;65.05;98696.84;7736822;32;40919;-81
2021/12/03 05:08:20;;;;;;;19.77;12.90;;;;;;;6.22;65.21;98710.09;7736450;32;37996;-81
2021/12/03 05:12:29;;;;;;;23.87;13.23;;;;;;;6.43;64.22;98727.16;7735268;32;37479;-81
2021/12/03 05:16:46;;;;;;;23.38;14.23;;;;;;;6.19;64.57;98733.06;7736573;32;39974;-82
2021/12/03 05:21:03;;;;;;;22.35;13.38;;;;;;;6.18;63.74;98750.41;7736411;32;40070;-81
2021/12/03 05:25:21;;;;;;;22.42;12.73;;;;;;;6.46;62.72;98748.28;7736337;32;38147;-81
2021/12/03 05:29:37;;;;;;;19.50;12.05;;;;;;;6.09;62.59;98770.94;7736120;32;37962;-81
2021/12/03 05:33:53;;;;;;;23.00;11.38;;;;;;;6.08;61.43;98780.16;7737064;32;39264;-81
2021/12/03 05:38:09;;;;;;;19.85;11.35;;;;;;;6.07;61.07;98781.22;7738560;32;39584;-81
2021/12/03 05:42:25;;;;;;;21.17;11.07;;;;;;;5.89;61.54;98804.16;7739705;32;37493;-81
2021/12/03 05:46:41;;;;;;;19.20;10.43;;;;;;;6.14;60.19;98811.56;7739695;32;37989;-81
2021/12/03 05:50:58;;;;;;;19.87;9.25;;;;;;;6.07;59.26;98827.22;7739885;32;38533;-81
2021/12/03 05:55:15;;;;;;;18.92;10.15;;;;;;;5.60;59.28;98843.22;7739619;32;40756;-81
2021/12/03 05:59:31;;;;;;;19.27;9.98;;;;;;;5.70;60.25;98833.56;7738290;32;38226;-81
2021/12/03 06:03:47;;;;;;;16.23;8.57;;;;;;;5.90;59.92;98844.47;7739497;32;36945;-81
2021/12/03 06:08:04;;;;;;;17.10;8.98;;;;;;;5.84;58.82;98864.44;7739327;32;39003;-81
2021/12/03 06:12:20;;;;;;;16.50;8.23;;;;;;;5.98;57.33;98879.13;7739362;32;40813;-81
2021/12/03 06:16:36;;;;;;;17.33;7.80;;;;;;;5.96;57.78;98886.72;7739347;32;37827;-81
2021/12/03 06:20:52;;;;;;;16.65;8.40;;;;;;;5.86;56.19;98897.44;7739365;32;37073;-80
2021/12/03 06:25:11;;;;;;;19.70;8.00;;;;;;;5.48;56.69;98915.59;7739319;32;40068;-82
2021/12/03 06:29:27;;;;;;;15.13;7.45;;;;;;;5.30;57.30;98926.84;7739218;32;39610;-81
2021/12/03 06:33:44;;;;;;;13.70;6.85;;;;;;;5.26;55.55;98938.16;7738988;32;37640;-81
2021/12/03 06:38:00;;;;;;;15.57;8.00;;;;;;;5.34;55.56;98947.66;7739259;32;37433;-80
2021/12/03 06:42:16;;;;;;;14.95;8.00;;;;;;;5.39;55.85;98963.13;7739095;32;39327;-81
2021/12/03 06:46:33;;;;;;;16.35;7.03;;;;;;;5.27;55.68;98971.41;7738833;32;39906;-81
2021/12/03 06:50:49;;;;;;;13.62;6.87;;;;;;;5.40;55.63;98984.50;7738821;32;39054;-81
2021/12/03 06:55:10;;;;;;;13.70;6.32;;;;;;;5.26;56.01;98994.91;7738935;32;37984;-80
2021/12/03 06:59:27;;;;;;;11.93;5.80;;;;;;;5.41;54.24;99015.84;7738934;32;40036;-81
2021/12/03 07:03:43;;;;;;;11.60;6.07;;;;;;;4.99;56.15;99018.44;7738815;32;39946;-81
2021/12/03 07:07:59;;;;;;;15.13;5.80;;;;;;;4.69;57.15;99017.00;7738527;32;37488;-81
2021/12/03 07:12:15;;;;;;;10.90;5.37;;;;;;;5.10;56.15;99017.44;7738617;32;37947;-81
2021/12/03 07:16:32;;;;;;;12.27;5.60;;;;;;;5.25;55.60;99023.00;7738592;32;39382;-81
2021/12/03 07:20:48;;;;;;;10.45;5.40;;;;;;;5.16;56.26;99035.34;7738506;32;38352;-80
2021/12/03 07:25:05;;;;;;;12.00;5.15;;;;;;;5.25;55.87;99052.72;7738470;32;37848;-80
2021/12/03 07:29:21;;;;;;;11.05;5.53;;;;;;;5.31;54.78;99060.88;7737399;32;38566;-80
2021/12/03 07:33:38;;;;;;;8.38;4.68;;;;;;;4.93;55.24;99068.03;7738407;32;39359;-80
2021/12/03 07:37:55;;;;;;;10.73;5.35;;;;;;;4.93;56.27;99076.97;7738358;32;40848;-80
2021/12/03 07:42:11;;;;;;;11.85;4.45;;;;;;;5.04;56.21;99086.03;7720216;32;38764;-77
2021/12/03 07:46:27;;;;;;;9.77;4.50;;;;;;;5.12;55.35;99103.66;7711723;32;37102;-80
2021/12/03 07:50:43;;;;;;;10.07;4.65;;;;;;;5.02;55.88;99126.00;7711789;32;39950;-79
2021/12/03 07:55:00;;;;;;;9.57;4.22;;;;;;;5.29;55.96;99122.50;7711379;32;40033;-81
2021/12/03 07:59:16;;;;;;;10.88;4.22;;;;;;;4.95;56.59;99142.38;7710501;32;37777;-81
2021/12/03 08:03:33;;;;;;;7.07;3.70;;;;;;;5.12;55.39;99158.50;7711342;32;38316;-81
2021/12/03 08:07:50;;;;;;;8.95;4.20;;;;;;;5.03;55.93;99168.13;7711229;32;40006;-81
2021/12/03 08:12:07;;;;;;;8.75;4.43;;;;;;;5.43;55.56;99181.34;7711225;32;40026;-81
2021/12/03 08:16:23;;;;;;;7.95;4.07;;;;;;;5.34;55.25;99190.12;7711120;32;37738;-80
2021/12/03 08:20:39;;;;;;;14.55;4.68;;;;;;;5.63;58.32;99205.06;7711270;32;37534;-81
2021/12/03 08:24:55;;;;;;;12.30;5.12;;;;;;;5.59;54.67;99217.47;7711047;32;39076;-81
2021/12/03 08:29:11;;;;;;;10.57;4.55;;;;;;;5.76;53.99;99214.69;7710999;32;39842;-81
2021/12/03 08:33:28;;;;;;;13.65;6.05;;;;;;;5.58;55.68;99221.22;7710751;32;38630;-80
2021/12/03 08:37:45;;;;;;;12.70;5.87;;;;;;;5.82;53.14;99220.97;7710822;32;38605;-80
2021/12/03 08:42:03;;;;;;;9.30;4.80;;;;;;;6.15;51.97;99224.56;7710661;32;40114;-80
2021/12/03 08:46:28;;;;;;;17.98;10.55;;;;;;;6.05;49.45;99241.50;7710588;32;40970;-81
2021/12/03 08:51:08;;;;;;;8.70;3.90;;;;;;;6.11;51.98;99236.97;7719859;32;37788;-81
2021/12/03 08:55:23;;;;;;;23.33;14.32;;;;;;;5.90;50.69;99261.09;7736533;32;36243;-82
2021/12/03 08:59:39;;;;;;;7.65;4.68;;;;;;;5.94;50.02;99262.22;7736436;32;39346;-81
2021/12/03 09:03:55;;;;;;;5.82;3.45;;;;;;;6.25;48.50;99278.00;7735894;32;39987;-82
2021/12/03 09:08:11;;;;;;;6.50;3.72;;;;;;;5.91;49.58;99284.34;7736948;32;37824;-81
2021/12/03 09:12:27;;;;;;;7.37;3.67;;;;;;;6.09;50.47;99285.09;7739254;32;37023;-81
2021/12/03 09:16:46;;;;;;;6.53;3.50;;;;;;;6.21;49.04;99285.81;7764776;32;40407;-82
2021/12/03 09:21:09;;;;;;;5.40;3.20;;;;;;;6.39;48.03;99293.53;7765897;32;39687;-81
2021/12/03 09:25:52;;;;;;;5.60;2.93;;;;;;;6.47;48.87;99307.69;7766751;32;37513;-81
2021/12/03 09:30:03;;;;;;;7.65;3.60;;;;;;;6.46;47.78;99315.00;7746680;32;37102;-82
2021/12/03 09:34:20;;;;;;;8.27;3.70;;;;;;;5.54;48.64;99325.56;7739026;32;38350;-81
2021/12/03 09:38:37;;;;;;;10.68;3.95;;;;;;;6.29;48.90;99319.72;7739555;32;39981;-81
2021/12/03 09:42:53;;;;;;;8.68;3.30;;;;;;;6.28;49.47;99305.38;7743309;32;37500;-81
2021/12/03 09:47:09;;;;;;;5.87;3.47;;;;;;;6.31;47.49;99299.44;7765772;32;36949;-82
2021/12/03 09:51:29;;;;;;;9.50;3.78;;;;;;;5.86;49.29;99308.66;7765819;32;39752;-82
2021/12/03 09:55:45;;;;;;;6.68;4.03;;;;;;;5.88;48.88;99314.66;7766398;32;40011;-82
2021/12/03 10:13:35;;;;;;;5.60;3.30;;;;;;;6.64;48.28;99318.41;7765246;32;40815;-82
2021/12/03 10:18:10;;;;;;;6.00;3.20;;;;;;;7.74;45.46;99306.13;7766375;32;37753;-83
2021/12/03 10:36:29;;;;;;;7.25;3.55;;;;;;;9.03;38.61;99330.56;7765440;32;38605;-80
2021/12/03 10:45:14;;;;;;;7.90;3.20;;;;;;;8.71;39.14;99330.03;7766088;32;40154;-81
2021/12/03 11:08:23;;;;;;;8.18;3.12;;;;;;;8.79;38.56;99362.09;7765539;32;40721;-83
2021/12/03 11:25:17;;;;;;;5.95;3.17;;;;;;;8.92;37.03;99361.59;7765610;32;39110;-82
2021/12/03 12:10:20;;;;;;;8.20;4.55;;;;;;;6.76;43.80;99411.16;7763876;32;37781;-81
2021/12/03 12:15:17;;;;;;;7.47;3.85;;;;;;;7.08;43.78;99408.50;7764762;32;37805;-81
2021/12/03 14:01:19;;;;;;;8.50;3.87;;;;;;;10.04;33.02;99485.03;7725581;32;38706;-81
2021/12/03 14:37:37;;;;;;;7.90;3.62;;;;;;;7.03;38.36;99543.16;7738633;32;38689;-81
2021/12/03 14:51:06;;;;;;;6.43;3.33;;;;;;;6.52;36.58;99573.16;7684560;32;39993;-83
2021/12/03 14:55:28;;;;;;;11.68;3.95;;;;;;;6.92;35.54;99581.00;7685317;32;37862;-82
2021/12/03 14:59:51;;;;;;;10.07;4.80;;;;;;;5.80;38.12;99591.00;7683730;32;37186;-80
2021/12/03 15:04:33;;;;;;;6.00;4.05;;;;;;;5.55;39.14;99604.91;7684884;32;40123;-82
2021/12/03 15:08:54;;;;;;;7.15;3.72;;;;;;;4.81;40.48;99606.47;7696633;32;39872;-82
2021/12/03 15:13:28;;;;;;;9.27;5.47;;;;;;;4.86;41.02;99603.03;7710828;32;37733;-81
2021/12/03 15:22:38;;;;;;;8.38;4.20;;;;;;;4.40;39.82;99604.75;7711356;32;39337;-82
2021/12/03 15:31:39;;;;;;;9.68;5.57;;;;;;;4.69;41.10;99621.84;7710960;32;37954;-79
2021/12/03 15:36:02;;;;;;;11.15;5.10;;;;;;;4.76;42.86;99624.44;7711334;32;38441;-80
2021/12/03 16:07:59;;;;;;;8.77;4.78;;;;;;;4.46;42.52;99679.41;7721509;32;35713;-78
2021/12/03 16:53:27;;;;;;;10.10;5.82;;;;;;;3.68;47.68;99725.22;7736830;32;39056;-81
2021/12/03 16:58:01;;;;;;;13.48;6.62;;;;;;;4.13;50.26;99730.16;7735495;32;39689;-81
2021/12/03 17:02:40;;;;;;;15.60;6.50;;;;;;;3.95;47.67;99732.94;7728444;32;38582;-80
2021/12/03 17:26:27;;;;;;;28.80;16.45;;;;;;;3.83;47.88;99735.59;7735713;32;37741;-80
2021/12/03 17:56:35;;;;;;;10.68;6.03;;;;;;;2.90;48.73;99761.75;7735481;32;38061;-81
2021/12/03 18:01:01;;;;;;;13.23;6.40;;;;;;;3.27;47.75;99764.47;7712708;32;37244;-81
2021/12/03 18:10:01;;;;;;;12.50;6.93;;;;;;;2.96;47.79;99768.12;7712013;32;40301;-80
2021/12/03 18:46:27;;;;;;;18.73;10.05;;;;;;;3.01;49.46;99771.78;7711862;32;40790;-80
2021/12/03 18:55:40;;;;;;;15.90;9.50;;;;;;;3.02;51.62;99767.25;7738528;32;37201;-80
2021/12/03 19:00:03;;;;;;;15.50;7.93;;;;;;;2.00;54.16;99773.66;7730909;32;40068;-79
2021/12/03 19:04:31;;;;;;;12.88;7.62;;;;;;;2.70;49.77;99764.63;7738433;32;39709;-80
2021/12/03 19:08:55;;;;;;;11.20;7.00;;;;;;;2.69;47.70;99778.31;7737610;32;37764;-77
2021/12/03 19:13:16;;;;;;;13.38;7.00;;;;;;;2.58;47.37;99777.97;7738614;32;36898;-80
2021/12/03 19:17:37;;;;;;;15.35;7.60;;;;;;;2.52;47.83;99773.50;7738164;32;39380;-80
2021/12/03 19:21:55;;;;;;;11.38;7.53;;;;;;;2.59;48.44;99763.50;7738307;32;39570;-81
2021/12/03 19:26:11;;;;;;;12.98;7.28;;;;;;;2.84;48.41;99775.28;7738113;32;37789;-81
2021/12/03 19:30:27;;;;;;;18.80;8.27;;;;;;;2.52;49.46;99784.25;7737633;32;36999;-79
2021/12/03 19:34:43;;;;;;;11.80;6.30;;;;;;;2.67;48.84;99781.22;7738013;32;39074;-80
2021/12/03 19:39:00;;;;;;;13.40;6.75;;;;;;;2.52;48.24;99788.78;7737097;32;40751;-81
2021/12/03 19:43:18;;;;;;;12.13;6.45;;;;;;;2.72;45.82;99788.63;7736995;32;37717;-79
2021/12/03 19:47:55;;;;;;;11.82;6.68;;;;;;;2.70;46.55;99796.13;7727099;32;39538;-80
2021/12/03 19:52:25;;;;;;;11.12;6.53;;;;;;;2.69;46.21;99781.00;7709532;32;40069;-80
2021/12/03 19:56:42;;;;;;;12.73;6.20;;;;;;;2.68;46.15;99784.75;7711426;32;39702;-79
2021/12/03 20:00:58;;;;;;;11.00;6.53;;;;;;;2.61;46.99;99792.88;7711163;32;38505;-80
2021/12/03 20:05:14;;;;;;;12.18;6.82;;;;;;;2.87;47.04;99785.63;7711291;32;38220;-79
2021/12/03 20:09:46;;;;;;;12.40;7.03;;;;;;;2.51;48.93;99793.34;7710009;32;39502;-80
2021/12/03 20:14:02;;;;;;;18.83;9.10;;;;;;;2.93;47.55;99790.94;7711166;32;40079;-79
2021/12/03 20:18:33;;;;;;;16.48;8.32;;;;;;;2.85;47.99;99793.91;7711174;32;37932;-79
2021/12/03 20:27:13;;;;;;;18.90;9.13;;;;;;;2.82;49.53;99788.97;7711184;32;39197;-80
2021/12/03 20:31:33;;;;;;;20.37;10.32;;;;;;;2.43;51.08;99788.25;7710973;32;40590;-79
2021/12/03 20:36:07;;;;;;;22.05;9.90;;;;;;;2.37;50.71;99792.63;7695671;32;38449;-80
2021/12/03 20:40:25;;;;;;;26.92;14.40;;;;;;;2.65;49.76;99795.94;7729134;32;36933;-80
2021/12/03 20:49:24;;;;;;;29.42;13.98;;;;;;;2.57;49.79;99765.59;7736735;32;39597;-78
2021/12/03 20:54:06;;;;;;;23.62;13.05;;;;;;;2.30;51.08;99780.28;7732976;32;38843;-80
2021/12/03 21:11:54;;;;;;;20.00;10.98;;;;;;;2.33;52.81;99774.44;7745432;32;38028;-77
2021/12/03 21:21:08;;;;;;;18.90;10.73;;;;;;;2.43;51.65;99761.31;7744206;32;39236;-80
2021/12/03 21:25:25;;;;;;;19.05;11.48;;;;;;;2.43;51.67;99764.03;7744680;32;40700;-79
2021/12/03 21:30:13;;;;;;;20.50;10.20;;;;;;;2.03;52.88;99765.13;7731092;32;37738;-80
2021/12/03 21:39:21;;;;;;;19.25;9.95;;;;;;;2.25;51.52;99773.66;7728004;32;39327;-80
2021/12/03 21:43:37;;;;;;;17.00;9.50;;;;;;;2.18;51.53;99767.50;7729744;32;38797;-80
2021/12/03 21:47:54;;;;;;;20.05;10.10;;;;;;;2.08;51.70;99766.34;7729205;32;37742;-80
2021/12/03 21:52:10;;;;;;;17.77;10.40;;;;;;;2.05;51.83;99767.59;7728494;32;37878;-80
2021/12/03 21:56:27;;;;;;;17.12;10.32;;;;;;;1.81;52.62;99769.19;7727967;32;39253;-80
2021/12/03 22:00:43;;;;;;;18.05;9.93;;;;;;;1.67;52.52;99792.59;7727342;32;41454;-81
2021/12/03 22:04:59;;;;;;;16.40;9.98;;;;;;;1.99;51.77;99790.81;7724769;32;37979;-82
2021/12/03 22:09:19;;;;;;;17.40;9.75;;;;;;;1.71;52.81;99780.41;7727370;32;37690;-81
2021/12/03 22:13:35;;;;;;;18.33;9.68;;;;;;;1.87;52.28;99782.59;7726366;32;39379;-80
2021/12/03 22:17:51;;;;;;;18.50;9.85;;;;;;;1.88;52.33;99778.88;7722612;32;40388;-81
2021/12/03 22:22:07;;;;;;;17.30;9.90;;;;;;;1.98;52.05;99769.50;7724126;32;37611;-80
2021/12/03 22:26:25;;;;;;;14.57;9.35;;;;;;;2.05;51.80;99770.28;7726546;32;36936;-81
2021/12/03 22:30:42;;;;;;;14.93;8.95;;;;;;;1.94;52.09;99765.59;7719197;32;39015;-81
2021/12/03 22:34:59;;;;;;;17.27;9.48;;;;;;;2.02;52.13;99757.28;7710073;32;40176;-81
2021/12/03 22:39:15;;;;;;;16.77;9.73;;;;;;;1.74;53.03;99755.78;7712333;32;37802;-81
2021/12/03 22:43:35;;;;;;;17.92;9.15;;;;;;;1.43;53.81;99743.09;7712412;32;37741;-81
2021/12/03 22:48:00;;;;;;;16.35;8.98;;;;;;;1.73;53.01;99734.50;7712165;32;39178;-80
2021/12/03 22:52:17;;;;;;;19.17;9.45;;;;;;;1.37;53.48;99742.09;7712327;32;39862;-78
2021/12/03 22:56:33;;;;;;;16.20;9.60;;;;;;;1.54;53.14;99738.94;7711796;32;37765;-79
2021/12/03 23:00:56;;;;;;;17.00;9.77;;;;;;;1.47;53.37;99729.03;7712402;32;38089;-79
2021/12/03 23:05:12;;;;;;;17.17;10.35;;;;;;;1.24;54.16;99724.19;7712294;32;39460;-80
2021/12/03 23:09:29;;;;;;;18.98;10.50;;;;;;;1.33;53.91;99715.88;7710510;32;40933;-80
2021/12/03 23:13:45;;;;;;;16.98;9.93;;;;;;;1.43;53.69;99716.25;7711711;32;37832;-81
2021/12/03 23:18:01;;;;;;;19.90;9.65;;;;;;;1.33;54.33;99705.97;7711912;32;37084;-81
2021/12/03 23:22:17;;;;;;;23.40;13.10;;;;;;;1.69;63.44;99704.53;7711750;32;39293;-81
2021/12/03 23:26:34;;;;;;;18.27;8.95;;;;;;;1.48;57.78;99703.84;7710784;32;39916;-81
2021/12/03 23:30:51;;;;;;;15.93;9.05;;;;;;;1.68;54.43;99692.12;7713511;32;38585;-80
2021/12/03 23:35:08;;;;;;;15.77;9.10;;;;;;;1.72;53.11;99698.72;7723502;32;37106;-80
2021/12/03 23:39:25;;;;;;;19.12;9.98;;;;;;;1.62;53.18;99693.00;7722222;32;40151;-81
2021/12/03 23:43:41;;;;;;;21.37;10.10;;;;;;;1.63;53.17;99694.66;7725855;32;40851;-81
2021/12/03 23:47:58;;;;;;;20.52;10.90;;;;;;;1.71;52.83;99680.13;7722849;32;38616;-79
2021/12/03 23:52:14;;;;;;;22.90;10.40;;;;;;;1.21;54.12;99680.78;7721227;32;37692;-80
2021/12/03 23:56:30;;;;;;;15.30;9.18;;;;;;;1.17;54.36;99671.53;7708461;32;39431;-79
